ENVA/TRD METAR and TAF weather

Enter ICAO airport designator
Station Type Date Time Source
ENVA METAR 2021/05/14 07:20 UTC NOAA

ENVA 140720Z 12006KT 9999 SCT011 BKN015 10/07 Q1009 TEMPO BKN010 RMK WIND 670FT VRB03KT


Station Type Date Time Source
ENVA Decoded METAR 2021/05/14 07:20 UTC NOAA

Trondheim / Vaernes, Norway (ENVA) 63-28N 010-56E 17M
May 14, 2021 - 03:20 AM EDT / 2021.05.14 0720 UTC
Wind: from the ESE (120 degrees) at 7 MPH (6 KT):0
Visibility: greater than 7 mile(s):0
Sky conditions: mostly cloudy
Temperature: 50 F (10 C)
Dew Point: 44 F (7 C)
Relative Humidity: 81%
Pressure (altimeter): 29.80 in. Hg (1009 hPa)
ob: ENVA 140720Z 12006KT 9999 SCT011 BKN015 10/07 Q1009 TEMPO BKN010 RMK WIND 670FT VRB03KT
cycle: 7

Station Type Date Time Source
ENVA TAF 2021/05/14 06:57 UTC NOAA

TAF ENVA 140500Z 1406/1506 10007KT 9999 FEW020 SCT050
TEMPO 1406/1409 BKN010 PROB30
TEMPO 1421/1506 15015G25KT

Example: see airport list